Time;durP1;ratioP1;P1;durP2;ratioP2;P2;SDS_P1;SDS_P2;PMS_P1;PMS_P2;Temp;Humidity;BMP_temperature;BMP_pressure;BME280_temperature;BME280_humidity;BME280_pressure;Samples;Min_cycle;Max_cycle;Signal;HPM_P1;HPM_P2
2022/10/29 00:01:39;;;;;;;13.30;8.70;;;;;;;9.11;100.00;100049.52;100712;1345;24759;-36
2022/10/29 00:04:05;;;;;;;10.80;7.10;;;;;;;9.10;100.00;100046.73;100824;1339;24509;-36
2022/10/29 00:06:31;;;;;;;13.50;9.80;;;;;;;9.08;100.00;100040.52;100769;1339;22745;-36
2022/10/29 00:08:56;;;;;;;16.50;10.30;;;;;;;9.07;100.00;100036.23;100713;1339;22774;-33
2022/10/29 00:11:22;;;;;;;16.80;9.70;;;;;;;9.06;100.00;100040.79;100790;1339;22764;-33
2022/10/29 00:13:51;;;;;;;11.80;8.80;;;;;;;9.06;100.00;100039.95;100690;1339;22738;-36
2022/10/29 00:16:18;;;;;;;12.90;9.40;;;;;;;9.04;100.00;100046.52;100795;1331;22872;-36
2022/10/29 00:18:44;;;;;;;12.90;8.40;;;;;;;9.07;100.00;100042.83;100791;1331;23222;-37
2022/10/29 00:21:13;;;;;;;20.50;9.10;;;;;;;9.12;100.00;100047.32;100787;1337;22875;-36
2022/10/29 00:23:39;;;;;;;14.60;8.80;;;;;;;9.13;100.00;100046.80;100693;1340;23090;-36
2022/10/29 00:26:05;;;;;;;17.90;10.00;;;;;;;9.13;100.00;100042.21;100792;1332;22511;-36
2022/10/29 00:28:31;;;;;;;10.30;6.70;;;;;;;9.12;100.00;100048.39;100715;1331;22758;-33
2022/10/29 00:31:00;;;;;;;18.50;8.30;;;;;;;9.10;100.00;100056.92;100721;1339;22758;-34
2022/10/29 00:33:26;;;;;;;17.90;10.00;;;;;;;9.09;100.00;100052.64;100814;1331;24362;-33
2022/10/29 00:35:55;;;;;;;12.60;6.80;;;;;;;9.08;100.00;100048.22;100755;1339;23224;-33
2022/10/29 00:38:21;;;;;;;12.50;7.90;;;;;;;9.08;100.00;100050.05;100744;1339;22516;-36
2022/10/29 00:40:46;;;;;;;17.10;11.10;;;;;;;9.09;100.00;100055.11;100724;1339;24379;-36
2022/10/29 00:43:14;;;;;;;14.50;10.80;;;;;;;9.11;100.00;100050.23;100822;1335;22884;-33
2022/10/29 00:45:40;;;;;;;16.80;9.40;;;;;;;9.14;100.00;100048.01;100744;1339;22907;-36
2022/10/29 00:48:06;;;;;;;21.50;11.30;;;;;;;9.17;100.00;100044.05;100754;1333;23183;-34
2022/10/29 00:50:31;;;;;;;17.30;9.40;;;;;;;9.21;100.00;100042.86;100806;1335;22894;-32
2022/10/29 00:52:57;;;;;;;13.70;9.00;;;;;;;9.22;100.00;100041.85;100769;1337;22748;-36
2022/10/29 00:55:22;;;;;;;14.20;9.10;;;;;;;9.23;100.00;100045.94;100720;1333;23100;-33
2022/10/29 00:57:49;;;;;;;14.90;9.40;;;;;;;9.22;100.00;100041.11;100844;1339;23047;-33
2022/10/29 01:00:16;;;;;;;27.00;10.80;;;;;;;9.22;100.00;100039.95;100776;1339;22796;-33
2022/10/29 01:02:41;;;;;;;12.20;7.70;;;;;;;9.20;100.00;100037.24;100648;1340;24826;-35
2022/10/29 01:05:08;;;;;;;14.30;7.90;;;;;;;9.21;100.00;100036.22;100797;1339;24423;-33
2022/10/29 01:07:34;;;;;;;17.10;10.80;;;;;;;9.24;100.00;100026.31;100736;1338;22768;-33
2022/10/29 01:09:59;;;;;;;13.60;8.90;;;;;;;9.23;100.00;100021.79;100496;1340;24321;-38
2022/10/29 01:12:35;;;;;;;17.10;9.70;;;;;;;9.26;100.00;100023.71;100821;1337;22496;-37
2022/10/29 01:15:07;;;;;;;20.20;12.50;;;;;;;9.28;100.00;100024.91;100715;1339;24315;-35
2022/10/29 01:17:39;;;;;;;17.70;10.00;;;;;;;9.31;100.00;100022.27;100793;1339;22529;-36
2022/10/29 01:20:09;;;;;;;16.60;10.00;;;;;;;9.29;100.00;100024.41;100757;1338;23112;-32
2022/10/29 01:22:41;;;;;;;15.70;11.10;;;;;;;9.27;100.00;100023.75;100795;1331;23122;-36
2022/10/29 01:25:10;;;;;;;29.70;8.60;;;;;;;9.25;100.00;100017.92;100816;1324;24437;-36
2022/10/29 01:27:48;;;;;;;18.20;10.00;;;;;;;9.22;100.00;100019.88;100843;1325;22584;-33
2022/10/29 01:30:23;;;;;;;12.50;7.30;;;;;;;9.21;100.00;100013.26;100541;1339;25840;-35
2022/10/29 01:32:52;;;;;;;12.80;8.00;;;;;;;9.20;100.00;100011.54;100723;1342;22878;-35
2022/10/29 01:35:24;;;;;;;10.50;6.80;;;;;;;9.19;100.00;100015.89;100893;1324;23050;-36
2022/10/29 01:37:56;;;;;;;11.50;7.10;;;;;;;9.17;100.00;100007.73;100747;1339;22513;-36
2022/10/29 01:40:26;;;;;;;24.90;8.70;;;;;;;9.16;100.00;100000.77;100711;1340;24433;-36
2022/10/29 01:42:57;;;;;;;11.80;8.10;;;;;;;9.17;100.00;100003.84;100741;1330;25594;-33
2022/10/29 01:45:28;;;;;;;16.40;8.40;;;;;;;9.21;100.00;99998.98;100812;1331;24343;-36
2022/10/29 01:47:56;;;;;;;9.80;5.40;;;;;;;9.22;100.00;99996.90;100717;1331;23111;-33
2022/10/29 01:50:22;;;;;;;12.80;9.10;;;;;;;9.24;100.00;100003.02;100817;1339;22746;-36
2022/10/29 01:52:48;;;;;;;8.60;5.40;;;;;;;9.35;100.00;100006.77;100687;1342;22770;-33
2022/10/29 01:55:17;;;;;;;12.30;8.70;;;;;;;9.42;100.00;100002.77;100746;1324;23139;-33
2022/10/29 01:57:43;;;;;;;14.90;9.80;;;;;;;9.50;100.00;100011.23;100728;1339;22531;-34
2022/10/29 02:00:11;;;;;;;15.30;8.40;;;;;;;9.59;100.00;100013.19;100794;1339;22514;-39
2022/10/29 02:02:41;;;;;;;14.70;9.00;;;;;;;9.69;100.00;100014.17;100747;1339;22502;-34
2022/10/29 02:05:11;;;;;;;10.30;8.20;;;;;;;9.71;100.00;100020.60;100784;1331;24361;-34
2022/10/29 02:07:44;;;;;;;19.30;12.20;;;;;;;9.75;100.00;100021.70;100763;1339;22970;-34
2022/10/29 02:10:15;;;;;;;11.20;8.30;;;;;;;9.77;100.00;100021.15;100731;1339;23909;-37
2022/10/29 02:12:46;;;;;;;6.00;5.40;;;;;;;9.81;100.00;100019.08;100843;1339;25558;-34
2022/10/29 02:15:16;;;;;;;19.50;11.80;;;;;;;9.80;100.00;100008.92;100795;1331;24874;-37
2022/10/29 02:17:42;;;;;;;12.90;8.60;;;;;;;9.81;100.00;100005.46;100490;1339;23225;-37
2022/10/29 02:20:09;;;;;;;14.10;8.90;;;;;;;9.80;100.00;100005.97;100748;1331;22970;-34
2022/10/29 02:22:35;;;;;;;15.00;9.10;;;;;;;9.81;100.00;99999.92;100625;1339;22875;-37
2022/10/29 02:25:00;;;;;;;18.50;11.00;;;;;;;9.83;100.00;99997.53;100769;1339;24234;-34
2022/10/29 02:27:26;;;;;;;15.40;9.20;;;;;;;9.87;100.00;99989.42;100723;1324;22523;-37
2022/10/29 02:29:53;;;;;;;13.50;8.40;;;;;;;9.92;100.00;99984.86;100747;1335;24396;-38
2022/10/29 02:32:18;;;;;;;14.10;9.00;;;;;;;9.99;100.00;99987.50;100698;1331;24353;-35
2022/10/29 02:34:44;;;;;;;12.00;7.90;;;;;;;10.05;100.00;99993.41;100789;1339;25540;-37
2022/10/29 02:37:09;;;;;;;13.90;8.00;;;;;;;10.10;100.00;99992.83;100695;1339;25150;-34
2022/10/29 02:39:35;;;;;;;11.80;7.20;;;;;;;10.17;100.00;99995.21;100722;1339;23215;-33
2022/10/29 02:42:00;;;;;;;15.30;8.40;;;;;;;10.17;100.00;100005.38;100809;1339;22889;-36
2022/10/29 02:44:26;;;;;;;19.20;10.40;;;;;;;10.19;100.00;100011.41;100701;1331;24466;-33
2022/10/29 02:46:51;;;;;;;14.40;10.10;;;;;;;10.20;100.00;100007.21;100641;1339;23239;-34
2022/10/29 02:49:17;;;;;;;14.50;9.60;;;;;;;10.24;100.00;100005.67;100633;1334;23320;-36
2022/10/29 02:51:42;;;;;;;13.80;8.30;;;;;;;10.25;100.00;99999.40;100832;1331;25662;-35
2022/10/29 02:54:08;;;;;;;13.20;8.80;;;;;;;10.22;100.00;99998.71;100636;1339;22935;-36
2022/10/29 02:56:34;;;;;;;15.50;9.30;;;;;;;10.23;100.00;100002.34;100613;1341;22977;-36
2022/10/29 02:58:59;;;;;;;15.80;8.70;;;;;;;10.27;100.00;99999.44;100688;1339;23221;-36
2022/10/29 03:01:25;;;;;;;10.50;6.80;;;;;;;10.23;100.00;99993.11;100658;1339;25003;-36
2022/10/29 03:03:50;;;;;;;21.30;10.70;;;;;;;10.21;100.00;99987.41;100791;1337;25058;-37
2022/10/29 03:06:17;;;;;;;14.30;8.00;;;;;;;10.19;100.00;99983.30;100783;1331;24353;-33
2022/10/29 03:08:43;;;;;;;20.60;10.90;;;;;;;10.19;100.00;99980.73;100729;1331;24302;-33
2022/10/29 03:11:09;;;;;;;14.00;8.40;;;;;;;10.21;100.00;99973.83;100826;1338;22742;-37
2022/10/29 03:13:34;;;;;;;14.20;8.40;;;;;;;10.21;100.00;99973.86;100702;1339;23341;-36
2022/10/29 03:16:00;;;;;;;9.90;6.70;;;;;;;10.17;100.00;99973.35;100795;1331;23018;-33
2022/10/29 03:18:25;;;;;;;15.00;7.10;;;;;;;10.16;100.00;99974.93;100683;1334;23113;-33
2022/10/29 03:20:51;;;;;;;13.10;8.70;;;;;;;10.18;100.00;99973.61;100776;1338;23220;-34
2022/10/29 03:23:17;;;;;;;15.20;10.80;;;;;;;10.18;100.00;99971.33;100708;1323;23229;-36
2022/10/29 03:25:42;;;;;;;14.00;8.90;;;;;;;10.18;100.00;99966.96;100824;1339;22672;-34
2022/10/29 03:28:08;;;;;;;10.90;6.20;;;;;;;10.22;100.00;99966.74;100718;1339;23214;-36
2022/10/29 03:30:33;;;;;;;22.60;7.20;;;;;;;10.23;100.00;99958.50;100733;1339;22758;-36
2022/10/29 03:32:59;;;;;;;15.00;8.30;;;;;;;10.21;100.00;99953.56;100610;1334;22760;-34
2022/10/29 03:35:25;;;;;;;13.90;8.80;;;;;;;10.20;100.00;99957.45;100854;1339;22957;-35
2022/10/29 03:37:51;;;;;;;16.90;9.30;;;;;;;10.20;100.00;99955.77;100847;1339;23070;-37
2022/10/29 03:40:17;;;;;;;10.80;7.50;;;;;;;10.25;100.00;99948.27;100750;1332;24379;-32
2022/10/29 03:42:43;;;;;;;22.60;9.80;;;;;;;10.23;100.00;99948.20;100728;1334;22533;-32
2022/10/29 03:45:08;;;;;;;10.90;6.90;;;;;;;10.25;100.00;99947.77;100763;1339;24450;-32
2022/10/29 03:47:34;;;;;;;13.10;9.50;;;;;;;10.28;100.00;99938.13;100699;1339;24460;-35
2022/10/29 03:49:59;;;;;;;11.70;7.40;;;;;;;10.24;100.00;99943.34;100798;1339;24363;-33
2022/10/29 03:52:25;;;;;;;15.60;10.20;;;;;;;10.22;100.00;99949.69;100618;1339;25381;-32
2022/10/29 03:54:51;;;;;;;12.40;8.00;;;;;;;10.23;100.00;99953.14;100705;1342;22872;-40
2022/10/29 03:57:16;;;;;;;15.30;9.10;;;;;;;10.22;100.00;99957.04;100646;1339;24295;-37
2022/10/29 03:59:42;;;;;;;17.20;11.20;;;;;;;10.20;100.00;99960.43;100789;1339;24256;-32
2022/10/29 04:02:08;;;;;;;16.50;9.20;;;;;;;10.16;100.00;99961.71;100749;1339;22579;-37
2022/10/29 04:04:34;;;;;;;16.60;7.70;;;;;;;10.13;100.00;99966.48;100774;1327;23106;-34
2022/10/29 04:06:59;;;;;;;15.60;7.90;;;;;;;10.06;100.00;99966.42;100755;1338;24343;-32
2022/10/29 04:09:25;;;;;;;10.90;6.50;;;;;;;10.03;100.00;99968.89;100629;1334;23310;-31
2022/10/29 04:11:50;;;;;;;20.50;9.10;;;;;;;10.03;100.00;99969.43;100519;1341;24443;-35
2022/10/29 04:14:16;;;;;;;19.50;10.10;;;;;;;10.08;100.00;99968.36;100750;1339;23231;-35
2022/10/29 04:16:41;;;;;;;12.20;8.00;;;;;;;10.03;100.00;99973.26;100682;1339;23071;-33
2022/10/29 04:19:07;;;;;;;12.30;9.50;;;;;;;10.06;100.00;99969.67;100496;1334;23090;-33
2022/10/29 04:21:32;;;;;;;10.90;7.50;;;;;;;10.07;100.00;99979.22;100766;1336;23339;-33
2022/10/29 04:23:58;;;;;;;7.70;5.50;;;;;;;10.07;100.00;99976.35;100764;1331;22528;-34
2022/10/29 04:26:24;;;;;;;12.90;7.10;;;;;;;10.07;100.00;99975.30;100798;1332;24371;-37
2022/10/29 04:28:50;;;;;;;15.40;10.40;;;;;;;10.10;100.00;99971.16;100717;1339;23218;-37
2022/10/29 04:31:16;;;;;;;12.30;7.70;;;;;;;10.13;100.00;99972.73;100834;1338;22520;-35
2022/10/29 04:33:42;;;;;;;16.30;9.30;;;;;;;10.19;100.00;99972.73;100380;1339;422481;-34
2022/10/29 04:36:07;;;;;;;15.40;8.50;;;;;;;10.23;100.00;99974.98;100711;1339;23223;-36
2022/10/29 04:38:33;;;;;;;11.50;7.40;;;;;;;10.26;100.00;99971.96;100733;1339;24449;-34
2022/10/29 04:40:59;;;;;;;20.90;7.30;;;;;;;10.25;100.00;99969.90;100741;1339;23351;-33
2022/10/29 04:43:26;;;;;;;21.40;10.70;;;;;;;10.25;100.00;99972.29;100743;1339;24443;-36
2022/10/29 04:45:52;;;;;;;14.20;7.80;;;;;;;10.21;100.00;99972.48;100833;1338;24597;-33
2022/10/29 04:48:18;;;;;;;10.20;5.80;;;;;;;10.19;100.00;99973.91;100694;1334;24355;-34
2022/10/29 04:50:43;;;;;;;12.20;8.30;;;;;;;10.14;100.00;99974.62;100796;1339;25636;-36
2022/10/29 04:53:10;;;;;;;15.40;6.60;;;;;;;10.12;100.00;99983.08;100779;1339;23171;-33
2022/10/29 04:55:37;;;;;;;10.00;6.90;;;;;;;10.07;100.00;99979.36;100751;1331;22863;-33
2022/10/29 04:58:04;;;;;;;15.10;8.40;;;;;;;10.02;100.00;99984.27;100809;1331;23038;-33
2022/10/29 05:00:29;;;;;;;10.20;7.00;;;;;;;10.04;100.00;99985.46;100841;1339;22526;-36
2022/10/29 05:02:55;;;;;;;13.30;8.20;;;;;;;9.99;100.00;99992.30;100748;1339;24379;-36
2022/10/29 05:05:20;;;;;;;21.00;9.80;;;;;;;10.05;100.00;99981.36;100752;1329;24311;-36
2022/10/29 05:07:46;;;;;;;8.70;5.00;;;;;;;10.00;100.00;99990.25;100782;1339;23226;-33
2022/10/29 05:10:12;;;;;;;17.10;7.70;;;;;;;9.98;100.00;99994.59;100520;1339;22745;-36
2022/10/29 05:12:37;;;;;;;11.70;6.70;;;;;;;9.99;100.00;99989.05;100746;1331;22710;-33
2022/10/29 05:15:03;;;;;;;11.20;8.70;;;;;;;9.98;100.00;99994.90;100722;1339;24273;-33
2022/10/29 05:17:29;;;;;;;13.10;7.80;;;;;;;10.02;100.00;99992.52;100818;1333;23051;-34
2022/10/29 05:19:54;;;;;;;14.00;7.00;;;;;;;9.93;100.00;100005.77;100770;1339;24862;-37
2022/10/29 05:22:20;;;;;;;15.00;8.70;;;;;;;9.93;100.00;100007.88;100741;1339;22760;-33
2022/10/29 05:24:45;;;;;;;8.60;6.00;;;;;;;9.90;100.00;100009.06;100778;1339;24324;-37
2022/10/29 05:27:11;;;;;;;15.30;8.60;;;;;;;9.92;100.00;100018.88;100626;1326;23093;-37
2022/10/29 05:29:36;;;;;;;16.90;8.30;;;;;;;9.91;100.00;100022.05;100683;1335;22605;-39
2022/10/29 05:32:04;;;;;;;12.20;8.00;;;;;;;9.93;100.00;100024.27;100798;1325;24378;-35
2022/10/29 05:34:29;;;;;;;8.60;5.80;;;;;;;10.00;100.00;100027.45;100817;1339;24874;-32
2022/10/29 05:36:55;;;;;;;11.70;6.50;;;;;;;9.94;100.00;100029.38;100650;1333;24325;-32
2022/10/29 05:39:20;;;;;;;15.60;7.80;;;;;;;9.95;100.00;100031.44;100762;1331;23052;-32
2022/10/29 05:41:46;;;;;;;10.20;7.30;;;;;;;9.96;100.00;100033.61;100721;1329;23214;-33
2022/10/29 05:44:12;;;;;;;23.70;7.00;;;;;;;9.98;100.00;100032.36;100773;1339;22750;-34
2022/10/29 05:46:37;;;;;;;20.00;9.20;;;;;;;9.93;100.00;100032.48;100656;1334;22506;-32
2022/10/29 05:49:03;;;;;;;23.80;5.80;;;;;;;9.93;100.00;100035.62;100703;1339;23294;-33
2022/10/29 05:51:29;;;;;;;9.10;4.70;;;;;;;9.91;100.00;100039.75;100804;1331;22984;-33
2022/10/29 05:53:54;;;;;;;9.70;7.00;;;;;;;9.95;100.00;100041.64;100764;1339;23020;-32
2022/10/29 05:56:19;;;;;;;11.10;5.70;;;;;;;9.92;100.00;100041.98;100642;1339;24427;-33
2022/10/29 05:58:48;;;;;;;10.90;5.90;;;;;;;9.92;100.00;100049.91;100698;1339;24427;-32
2022/10/29 06:01:13;;;;;;;14.20;5.90;;;;;;;10.00;100.00;100048.17;100705;1342;24379;-32
2022/10/29 06:03:39;;;;;;;11.70;6.90;;;;;;;10.02;100.00;100050.68;100703;1331;23232;-35
2022/10/29 06:06:05;;;;;;;11.80;6.00;;;;;;;10.07;100.00;100057.77;100660;1339;22975;-32
2022/10/29 06:08:30;;;;;;;13.60;8.10;;;;;;;10.07;100.00;100066.39;100825;1331;24470;-32
2022/10/29 06:10:59;;;;;;;10.10;6.80;;;;;;;10.12;100.00;100063.96;100792;1339;23089;-35
2022/10/29 06:13:25;;;;;;;11.50;6.60;;;;;;;10.11;100.00;100059.59;100781;1333;22745;-33
2022/10/29 06:15:55;;;;;;;6.70;4.50;;;;;;;10.07;100.00;100064.44;100791;1331;24305;-34
2022/10/29 06:18:21;;;;;;;15.20;9.00;;;;;;;10.07;100.00;100074.40;100707;1339;24417;-33
2022/10/29 06:20:46;;;;;;;12.80;6.40;;;;;;;10.14;100.00;100070.95;100788;1339;22506;-33
2022/10/29 06:23:12;;;;;;;15.50;7.10;;;;;;;10.22;100.00;100072.80;100754;1332;26479;-36
2022/10/29 06:25:37;;;;;;;11.50;7.70;;;;;;;10.32;100.00;100073.86;100781;1339;22744;-36
2022/10/29 06:28:05;;;;;;;10.40;6.60;;;;;;;10.36;100.00;100074.15;100764;1333;23279;-36
2022/10/29 06:30:31;;;;;;;9.70;4.60;;;;;;;10.30;100.00;100076.58;100750;1339;23063;-33
2022/10/29 06:32:58;;;;;;;15.90;6.90;;;;;;;10.32;100.00;100080.65;100646;1317;22512;-35
2022/10/29 06:35:24;;;;;;;9.30;4.80;;;;;;;10.41;100.00;100081.97;100823;1332;22742;-34
2022/10/29 06:37:50;;;;;;;11.00;5.20;;;;;;;10.43;100.00;100088.86;100633;1334;24486;-37
2022/10/29 06:40:15;;;;;;;8.10;5.50;;;;;;;10.49;100.00;100090.38;100756;1331;24302;-36
2022/10/29 06:42:41;;;;;;;9.60;7.20;;;;;;;10.61;100.00;100088.16;100778;1339;23085;-34
2022/10/29 06:45:07;;;;;;;12.40;3.30;;;;;;;10.82;100.00;100084.66;100662;1339;23096;-36
2022/10/29 06:47:38;;;;;;;9.90;5.10;;;;;;;10.87;100.00;100083.52;100775;1339;23227;-37
2022/10/29 06:50:04;;;;;;;9.10;6.40;;;;;;;10.93;100.00;100085.89;100768;1325;22557;-34
2022/10/29 06:52:30;;;;;;;10.10;5.70;;;;;;;11.08;100.00;100085.20;100749;1339;24474;-37
2022/10/29 06:54:55;;;;;;;11.50;4.20;;;;;;;11.39;100.00;100071.40;100758;1332;25029;-34
2022/10/29 06:57:23;;;;;;;6.20;4.90;;;;;;;11.43;100.00;100067.82;100778;1339;23752;-37
2022/10/29 06:59:49;;;;;;;8.30;4.60;;;;;;;11.62;100.00;100060.91;100753;1323;22747;-37
2022/10/29 07:02:15;;;;;;;11.20;4.90;;;;;;;11.71;100.00;100054.58;100772;1339;22747;-36
2022/10/29 07:04:41;;;;;;;9.40;4.50;;;;;;;11.76;100.00;100049.58;100821;1339;22512;-34
2022/10/29 07:07:06;;;;;;;11.70;4.60;;;;;;;11.86;100.00;100051.83;100801;1333;23213;-35
2022/10/29 07:09:32;;;;;;;8.00;3.90;;;;;;;11.99;100.00;100052.95;100772;1330;23047;-36
2022/10/29 07:11:57;;;;;;;13.80;4.50;;;;;;;12.14;100.00;100047.31;100747;1332;22503;-38
2022/10/29 07:14:23;;;;;;;4.70;3.50;;;;;;;12.40;100.00;100044.84;100797;1339;22758;-35
2022/10/29 07:16:48;;;;;;;6.10;3.20;;;;;;;12.50;100.00;100039.60;100650;1334;22852;-35
2022/10/29 07:19:14;;;;;;;6.10;3.00;;;;;;;12.67;100.00;100039.45;100648;1335;22748;-36
2022/10/29 07:21:40;;;;;;;8.60;3.80;;;;;;;12.93;100.00;100035.42;100819;1339;22505;-38
2022/10/29 07:24:06;;;;;;;6.80;3.30;;;;;;;13.20;100.00;100025.95;100647;1339;23087;-36
2022/10/29 07:26:31;;;;;;;7.50;3.20;;;;;;;13.50;100.00;100027.55;100641;1339;22875;-39
2022/10/29 07:28:57;;;;;;;34.20;12.20;;;;;;;13.71;100.00;100027.27;100811;1339;22572;-36
2022/10/29 07:31:23;;;;;;;16.30;10.90;;;;;;;13.91;100.00;100026.56;100824;1337;22745;-36
2022/10/29 07:33:49;;;;;;;9.10;4.80;;;;;;;14.01;100.00;100024.96;100666;1339;24309;-33
2022/10/29 07:36:14;;;;;;;8.10;4.50;;;;;;;14.21;99.07;100025.75;100791;1339;23102;-36
2022/10/29 07:38:40;;;;;;;13.50;9.10;;;;;;;14.23;98.30;100029.16;100787;1336;24472;-33
2022/10/29 07:41:05;;;;;;;22.40;8.60;;;;;;;14.34;97.67;100025.08;100707;1331;22912;-33
2022/10/29 07:43:31;;;;;;;8.10;4.50;;;;;;;14.42;97.40;100024.84;100754;1339;24279;-34
2022/10/29 07:45:56;;;;;;;8.40;6.20;;;;;;;14.48;96.34;100027.98;100694;1337;26611;-35
2022/10/29 07:48:22;;;;;;;9.60;3.30;;;;;;;14.50;96.70;100030.85;100728;1339;23445;-36
2022/10/29 07:50:48;;;;;;;7.10;2.60;;;;;;;14.54;97.33;100031.91;100656;1342;22815;-33
2022/10/29 07:53:14;;;;;;;5.10;3.50;;;;;;;14.54;97.31;100028.01;100698;1336;24316;-34
2022/10/29 07:55:39;;;;;;;4.50;2.50;;;;;;;14.61;95.97;100023.76;100798;1339;22917;-33
2022/10/29 07:58:07;;;;;;;10.50;2.50;;;;;;;14.66;95.28;100021.05;100736;1332;22871;-37
2022/10/29 08:00:34;;;;;;;4.70;2.40;;;;;;;14.74;94.64;100025.42;100675;1334;22906;-33
2022/10/29 08:02:59;;;;;;;3.30;2.50;;;;;;;14.88;94.54;100020.04;100617;1340;22531;-33
2022/10/29 08:05:25;;;;;;;20.30;4.30;;;;;;;14.94;94.72;100022.02;100872;1339;24884;-36
2022/10/29 08:07:54;;;;;;;4.00;2.10;;;;;;;15.00;94.56;100026.08;100738;1324;22512;-33
2022/10/29 08:10:20;;;;;;;12.10;3.70;;;;;;;15.09;95.40;100024.60;100846;1331;22848;-36
2022/10/29 08:12:49;;;;;;;10.50;2.80;;;;;;;15.29;94.31;100024.56;100789;1339;22758;-36
2022/10/29 08:15:14;;;;;;;6.20;2.90;;;;;;;15.57;92.96;100025.78;100780;1338;22507;-34
2022/10/29 08:17:40;;;;;;;3.60;2.70;;;;;;;15.64;92.54;100026.20;100718;1337;25239;-34
2022/10/29 08:20:06;;;;;;;9.10;3.40;;;;;;;15.72;93.29;100028.16;100852;1339;24900;-34
2022/10/29 08:22:31;;;;;;;4.20;2.40;;;;;;;15.83;92.61;100031.31;100801;1331;23256;-32
2022/10/29 08:24:57;;;;;;;4.60;2.30;;;;;;;15.85;91.98;100029.88;100675;1339;25021;-33
2022/10/29 08:27:22;;;;;;;11.50;4.20;;;;;;;16.02;92.20;100028.89;100651;1334;25004;-38
2022/10/29 08:29:48;;;;;;;22.20;4.00;;;;;;;16.17;92.23;100029.77;100738;1313;22509;-33
2022/10/29 08:32:14;;;;;;;4.40;2.60;;;;;;;16.20;92.26;100031.33;100653;1339;23384;-36
2022/10/29 08:34:40;;;;;;;3.50;2.90;;;;;;;16.36;89.99;100026.23;100679;1339;23001;-33
2022/10/29 08:37:06;;;;;;;10.50;2.60;;;;;;;16.36;88.42;100030.13;100789;1333;23088;-38
2022/10/29 08:39:31;;;;;;;4.40;2.70;;;;;;;16.34;88.37;100033.54;100768;1339;23216;-36
2022/10/29 08:42:02;;;;;;;5.50;3.20;;;;;;;16.24;87.81;100030.80;100748;1339;22766;-35
2022/10/29 08:44:51;;;;;;;4.60;2.90;;;;;;;16.32;86.70;100034.93;100787;1339;22510;-36
2022/10/29 08:47:19;;;;;;;13.80;3.20;;;;;;;16.14;88.34;100035.29;100767;1331;24580;-36
2022/10/29 08:49:49;;;;;;;6.10;2.30;;;;;;;16.26;88.11;100032.25;100759;1338;23103;-37
2022/10/29 08:52:19;;;;;;;4.10;2.50;;;;;;;16.23;88.64;100033.23;100657;1326;24398;-36
2022/10/29 08:54:47;;;;;;;6.00;2.70;;;;;;;16.39;88.65;100033.97;100838;1331;22872;-37
2022/10/29 08:57:14;;;;;;;5.20;2.50;;;;;;;16.61;87.05;100025.92;100540;1334;22781;-35
2022/10/29 08:59:45;;;;;;;13.60;2.90;;;;;;;16.69;85.89;100026.44;100586;1339;22515;-36
2022/10/29 09:02:15;;;;;;;5.60;3.50;;;;;;;16.66;86.62;100026.88;100795;1339;24865;-38
2022/10/29 09:04:41;;;;;;;7.20;3.00;;;;;;;16.77;85.41;100030.36;100796;1336;24369;-35
2022/10/29 09:07:11;;;;;;;4.80;2.10;;;;;;;16.65;86.17;100031.05;100744;1339;24794;-37
2022/10/29 09:09:42;;;;;;;7.30;2.40;;;;;;;16.63;85.97;100027.56;100758;1339;24396;-38
2022/10/29 09:12:18;;;;;;;5.70;2.10;;;;;;;16.79;84.73;100023.83;100631;1339;22770;-34
2022/10/29 09:14:52;;;;;;;4.50;2.90;;;;;;;16.89;83.61;100022.58;100702;1339;22748;-34
2022/10/29 09:17:30;;;;;;;6.70;3.40;;;;;;;16.72;83.86;100020.88;100765;1331;22758;-34
2022/10/29 09:20:07;;;;;;;5.30;3.70;;;;;;;16.53;85.28;100024.64;100838;1339;23096;-36
2022/10/29 09:22:41;;;;;;;6.40;2.80;;;;;;;16.44;86.84;100022.50;100721;1339;22499;-34
2022/10/29 09:25:13;;;;;;;11.30;5.40;;;;;;;16.61;85.00;100022.45;100812;1329;24408;-36
2022/10/29 09:27:42;;;;;;;8.00;5.90;;;;;;;16.39;86.30;100031.76;100707;1339;24023;-36
2022/10/29 09:30:14;;;;;;;9.60;7.00;;;;;;;16.29;87.53;100034.86;100783;1333;22748;-34
2022/10/29 09:32:43;;;;;;;14.90;7.10;;;;;;;16.33;88.53;100035.33;100764;1339;23240;-34
2022/10/29 09:35:13;;;;;;;3.90;2.90;;;;;;;16.47;88.88;100040.13;100864;1331;23244;-37
2022/10/29 09:37:41;;;;;;;9.00;2.70;;;;;;;16.69;87.80;100037.00;100754;1334;22529;-37
2022/10/29 09:40:18;;;;;;;7.40;3.10;;;;;;;16.92;86.26;100031.36;100745;1331;22738;-36
2022/10/29 09:42:45;;;;;;;4.80;3.80;;;;;;;16.84;86.28;100032.18;100747;1339;24413;-33
2022/10/29 09:45:14;;;;;;;13.40;3.40;;;;;;;16.88;86.74;100033.58;100796;1339;22627;-38
2022/10/29 09:47:46;;;;;;;7.90;3.40;;;;;;;16.92;86.87;100036.46;100755;1338;22503;-36
2022/10/29 09:50:17;;;;;;;9.70;3.00;;;;;;;17.07;86.35;100036.85;100667;1339;22492;-34
2022/10/29 09:52:43;;;;;;;11.10;2.50;;;;;;;17.25;86.23;100033.02;100782;1339;22856;-36
2022/10/29 09:55:17;;;;;;;7.30;2.50;;;;;;;17.54;84.93;100031.52;100807;1331;22710;-37
2022/10/29 09:57:43;;;;;;;4.60;2.40;;;;;;;17.93;82.90;100032.33;100738;1339;22744;-37
2022/10/29 10:00:15;;;;;;;8.60;3.20;;;;;;;18.11;81.78;100028.65;100707;1331;23037;-35
2022/10/29 10:02:44;;;;;;;6.20;2.20;;;;;;;18.26;81.44;100026.19;100650;1339;22749;-39
2022/10/29 10:05:23;;;;;;;7.00;3.40;;;;;;;18.63;79.91;100026.33;100822;1339;25384;-37
2022/10/29 10:07:55;;;;;;;16.40;6.60;;;;;;;18.79;79.20;100023.70;100794;1339;22520;-35
2022/10/29 10:10:24;;;;;;;3.40;1.50;;;;;;;19.00;79.54;100025.66;100807;1339;25608;-37
2022/10/29 10:12:49;;;;;;;10.40;3.60;;;;;;;19.36;76.17;100025.58;100684;1339;22760;-35
2022/10/29 10:15:15;;;;;;;3.50;1.40;;;;;;;19.47;75.81;100024.64;100682;1339;24945;-37
2022/10/29 10:17:48;;;;;;;4.20;1.60;;;;;;;19.59;75.10;100023.86;100742;1331;22735;-37
2022/10/29 10:20:25;;;;;;;5.50;2.20;;;;;;;19.73;72.91;100022.70;100752;1339;23001;-35
2022/10/29 10:22:50;;;;;;;8.20;6.10;;;;;;;19.51;71.90;100013.88;100696;1333;22871;-38
2022/10/29 10:25:31;;;;;;;11.00;8.40;;;;;;;19.78;70.79;100014.52;100793;1331;22531;-37
2022/10/29 10:27:56;;;;;;;2.70;1.50;;;;;;;19.82;71.75;100017.54;100723;1339;22711;-37
2022/10/29 10:30:23;;;;;;;12.10;2.10;;;;;;;19.93;71.49;100012.41;100591;1340;24378;-34
2022/10/29 10:32:48;;;;;;;1.50;1.20;;;;;;;20.15;70.54;100015.45;100795;1317;24279;-38
2022/10/29 10:35:21;;;;;;;3.70;1.70;;;;;;;20.22;71.31;100007.77;100796;1339;22518;-34
2022/10/29 10:37:47;;;;;;;4.20;1.40;;;;;;;20.61;69.06;100002.98;100795;1339;22518;-36
2022/10/29 10:40:20;;;;;;;7.60;1.80;;;;;;;20.79;67.84;100005.34;100539;1336;22907;-36
2022/10/29 10:42:46;;;;;;;2.50;1.80;;;;;;;20.85;66.84;100000.95;100770;1339;24262;-37
2022/10/29 10:45:14;;;;;;;2.30;1.20;;;;;;;20.77;66.67;99998.63;100778;1339;22509;-36
2022/10/29 10:47:41;;;;;;;7.70;1.70;;;;;;;20.93;66.13;100002.77;100691;1334;23328;-34
2022/10/29 10:50:11;;;;;;;6.30;1.80;;;;;;;21.05;64.98;99996.45;100697;1331;22501;-34
2022/10/29 10:52:37;;;;;;;2.80;1.80;;;;;;;21.00;65.42;99992.16;100797;1339;22820;-39
2022/10/29 10:55:09;;;;;;;18.80;2.20;;;;;;;20.92;66.04;99991.56;100758;1339;24382;-36
2022/10/29 10:57:39;;;;;;;7.60;1.60;;;;;;;20.90;65.48;99990.16;100683;1340;24590;-36
2022/10/29 11:00:12;;;;;;;10.30;2.50;;;;;;;21.01;65.70;99985.73;100470;1339;24377;-38
2022/10/29 11:02:41;;;;;;;3.70;2.50;;;;;;;20.85;66.34;99988.67;100755;1339;24299;-36
2022/10/29 11:05:13;;;;;;;5.50;1.90;;;;;;;20.71;66.86;99985.50;100773;1331;23113;-36
2022/10/29 11:07:41;;;;;;;11.40;2.90;;;;;;;20.81;66.47;99977.63;100725;1334;22511;-36
2022/10/29 11:10:09;;;;;;;8.90;1.70;;;;;;;20.82;66.87;99978.30;100830;1339;24874;-38